createdAt,value
2023-02-13T00:04:30.127Z,100.00
2023-02-13T00:09:34.206Z,100.00
2023-02-13T00:14:37.596Z,100.00
2023-02-13T00:19:40.443Z,100.00
2023-02-13T00:24:44.639Z,100.00
2023-02-13T00:29:47.667Z,100.00
2023-02-13T00:34:50.432Z,100.00
2023-02-13T00:39:54.744Z,100.00
2023-02-13T00:44:57.486Z,100.00
2023-02-13T00:50:00.266Z,100.00
2023-02-13T00:55:04.570Z,100.00
2023-02-13T01:00:08.641Z,100.00
2023-02-13T01:05:11.545Z,100.00
2023-02-13T01:10:18.698Z,100.00
2023-02-13T01:15:22.285Z,100.00
2023-02-13T01:20:29.413Z,100.00
2023-02-13T01:25:34.819Z,100.00
2023-02-13T01:30:37.651Z,100.00
2023-02-13T01:35:40.876Z,100.00
2023-02-13T01:40:48.293Z,100.00
2023-02-13T01:45:55.841Z,100.00
2023-02-13T01:51:03.386Z,100.00
2023-02-13T01:56:13.351Z,100.00
2023-02-13T02:01:16.690Z,100.00
2023-02-13T02:06:24.775Z,100.00
2023-02-13T02:11:48.014Z,100.00
2023-02-13T02:16:51.224Z,100.00
2023-02-13T02:22:33.060Z,100.00
2023-02-13T02:27:54.123Z,100.00
2023-02-13T02:33:10.531Z,100.00
2023-02-13T02:38:27.939Z,100.00
2023-02-13T02:43:45.560Z,100.00
2023-02-13T02:49:13.368Z,100.00
2023-02-13T02:54:42.939Z,100.00
2023-02-13T03:00:06.461Z,100.00
2023-02-13T03:05:36.729Z,100.00
2023-02-13T03:10:57.590Z,100.00
2023-02-13T03:16:19.230Z,100.00
2023-02-13T03:21:49.824Z,100.00
2023-02-13T03:27:01.920Z,100.00
2023-02-13T03:32:13.078Z,100.00
2023-02-13T03:37:41.575Z,100.00
2023-02-13T03:42:49.729Z,100.00
2023-02-13T03:47:57.550Z,100.00
2023-02-13T03:53:04.942Z,100.00
2023-02-13T03:58:30.156Z,100.00
2023-02-13T04:03:38.122Z,100.00
2023-02-13T04:08:42.480Z,100.00
2023-02-13T04:13:53.424Z,100.00
2023-02-13T04:18:58.369Z,100.00
2023-02-13T04:24:02.508Z,100.00
2023-02-13T04:29:05.616Z,100.00
2023-02-13T04:34:08.408Z,100.00
2023-02-13T04:39:13.506Z,100.00
2023-02-13T04:44:16.591Z,98.62
2023-02-13T04:49:19.390Z,98.10
2023-02-13T04:54:23.581Z,97.62
2023-02-13T04:59:26.356Z,95.72
2023-02-13T05:04:29.405Z,97.57
2023-02-13T05:09:33.528Z,97.81
2023-02-13T05:14:36.427Z,97.90
2023-02-13T05:19:39.244Z,96.68
2023-02-13T05:24:43.381Z,94.83
2023-02-13T05:29:46.168Z,95.86
2023-02-13T05:34:49.021Z,94.59
2023-02-13T05:39:53.186Z,92.77
2023-02-13T05:44:56.170Z,88.68
2023-02-13T05:49:58.972Z,90.26
2023-02-13T05:55:03.213Z,90.30
2023-02-13T06:00:07.281Z,91.29
2023-02-13T06:05:10.938Z,91.34
2023-02-13T06:10:15.069Z,97.20
2023-02-13T06:15:18.006Z,99.20
2023-02-13T06:20:20.880Z,98.04
2023-02-13T06:25:25.378Z,99.19
2023-02-13T06:30:28.614Z,100.00
2023-02-13T06:35:31.546Z,100.00
2023-02-13T06:40:35.628Z,100.00
2023-02-13T06:45:38.828Z,100.00
2023-02-13T06:50:41.817Z,100.00
2023-02-13T06:55:46.286Z,100.00
2023-02-13T07:00:49.197Z,100.00
2023-02-13T07:05:52.700Z,100.00
2023-02-13T07:10:57.186Z,100.00
2023-02-13T07:16:02.208Z,100.00
2023-02-13T07:21:05.304Z,100.00
2023-02-13T07:26:11.168Z,99.58
2023-02-13T07:31:14.193Z,100.00
2023-02-13T07:36:17.322Z,100.00
2023-02-13T07:41:21.916Z,100.00
2023-02-13T07:46:24.823Z,100.00
2023-02-13T07:51:29.126Z,100.00
2023-02-13T07:56:33.518Z,100.00
2023-02-13T08:01:36.773Z,100.00
2023-02-13T08:06:40.595Z,100.00
2023-02-13T08:11:59.939Z,100.00
2023-02-13T08:17:06.642Z,100.00
2023-02-13T08:22:10.110Z,99.54
2023-02-13T08:27:15.676Z,100.00
2023-02-13T08:32:18.666Z,97.22
2023-02-13T08:37:21.598Z,93.21
2023-02-13T08:42:25.852Z,93.02
2023-02-13T08:47:29.028Z,96.50
2023-02-13T08:52:31.893Z,95.12
2023-02-13T08:57:36.041Z,95.18
2023-02-13T09:02:38.967Z,94.85
2023-02-13T09:07:41.904Z,96.13
2023-02-13T09:12:46.047Z,93.21
2023-02-13T09:17:48.928Z,91.98
2023-02-13T09:22:51.805Z,85.37
2023-02-13T09:27:56.017Z,86.17
2023-02-13T09:32:58.876Z,87.34
2023-02-13T09:38:02.212Z,85.40
2023-02-13T09:43:14.333Z,80.26
2023-02-13T09:48:25.793Z,81.70
2023-02-13T09:53:33.470Z,87.11
2023-02-13T09:58:44.209Z,86.85
2023-02-13T10:03:51.450Z,89.61
2023-02-13T10:09:06.241Z,88.83
2023-02-13T10:14:17.706Z,87.70
2023-02-13T10:19:33.106Z,89.46
2023-02-13T10:24:41.325Z,87.29
2023-02-13T10:30:09.449Z,92.11
2023-02-13T10:35:21.961Z,88.30
2023-02-13T10:40:31.920Z,84.75
2023-02-13T10:45:52.909Z,80.56
2023-02-13T10:51:04.556Z,81.78
2023-02-13T10:56:26.496Z,82.35
2023-02-13T11:01:38.173Z,80.14
2023-02-13T11:06:44.891Z,77.64
2023-02-13T11:11:47.724Z,77.47
2023-02-13T11:16:56.033Z,80.91
2023-02-13T11:22:03.135Z,81.54
2023-02-13T11:27:09.365Z,77.77
2023-02-13T11:32:22.776Z,76.56
2023-02-13T11:37:28.738Z,80.20
2023-02-13T11:42:35.432Z,81.85
2023-02-13T11:47:41.927Z,81.61
2023-02-13T11:52:58.116Z,76.96
2023-02-13T11:58:03.705Z,77.82
2023-02-13T12:03:28.778Z,77.08
2023-02-13T12:08:34.008Z,75.90
2023-02-13T12:13:39.612Z,77.14
2023-02-13T12:18:47.506Z,75.74
2023-02-13T12:23:57.223Z,76.21
2023-02-13T12:29:20.467Z,78.99
2023-02-13T12:34:56.182Z,78.98
2023-02-13T12:40:15.800Z,76.38
2023-02-13T12:45:37.160Z,77.23
2023-02-13T12:50:58.016Z,77.52
2023-02-13T12:56:25.640Z,71.19
2023-02-13T13:01:49.717Z,72.23
2023-02-13T13:07:12.115Z,73.20
2023-02-13T13:12:33.137Z,76.74
2023-02-13T13:17:57.868Z,74.77
2023-02-13T13:23:10.055Z,72.84
2023-02-13T13:28:17.075Z,71.07
2023-02-13T13:33:22.639Z,73.58
2023-02-13T13:38:38.254Z,72.95
2023-02-13T13:43:53.838Z,72.96
2023-02-13T13:49:26.235Z,71.56
2023-02-13T13:54:37.273Z,69.98
2023-02-13T14:00:24.553Z,71.23
2023-02-13T14:05:30.236Z,71.33
2023-02-13T14:11:09.674Z,72.04
2023-02-13T14:16:33.660Z,72.28
2023-02-13T14:21:36.535Z,74.03
2023-02-13T14:26:41.070Z,74.74
2023-02-13T14:31:59.673Z,74.38
2023-02-13T14:37:29.737Z,71.40
2023-02-13T14:42:34.549Z,71.19
2023-02-13T14:47:42.796Z,71.22
2023-02-13T14:52:48.888Z,74.36
2023-02-13T14:57:55.267Z,71.50
2023-02-13T15:03:04.017Z,75.34
2023-02-13T15:08:14.748Z,72.24
2023-02-13T15:13:21.326Z,72.49
2023-02-13T15:18:37.406Z,73.23
2023-02-13T15:23:40.352Z,74.08
2023-02-13T15:28:43.295Z,74.92
2023-02-13T15:33:49.696Z,74.71
2023-02-13T15:39:02.242Z,74.09
2023-02-13T15:44:05.932Z,74.16
2023-02-13T15:49:17.027Z,73.35
2023-02-13T15:54:26.026Z,73.99
2023-02-13T15:59:33.310Z,75.86
2023-02-13T16:04:38.024Z,76.65
2023-02-13T16:09:41.048Z,74.25
2023-02-13T16:14:49.407Z,74.51
2023-02-13T16:20:01.615Z,75.62
2023-02-13T16:25:16.853Z,73.93
2023-02-13T16:30:33.665Z,72.60
2023-02-13T16:35:42.104Z,75.31
2023-02-13T16:40:45.790Z,75.63
2023-02-13T16:45:49.462Z,72.79
2023-02-13T16:50:57.812Z,73.66
2023-02-13T16:56:03.693Z,73.61
2023-02-13T17:01:06.930Z,74.45
2023-02-13T17:06:12.826Z,71.27
2023-02-13T17:11:21.852Z,74.05
2023-02-13T17:16:26.355Z,74.58
2023-02-13T17:21:30.582Z,74.24
2023-02-13T17:26:33.411Z,72.32
2023-02-13T17:31:37.108Z,73.19
2023-02-13T17:36:41.337Z,70.22
2023-02-13T17:41:44.159Z,71.19
2023-02-13T17:46:47.339Z,70.56
2023-02-13T17:51:51.610Z,70.70
2023-02-13T17:56:54.488Z,73.31
2023-02-13T18:01:58.245Z,72.51
2023-02-13T18:07:02.574Z,70.51
2023-02-13T18:12:06.145Z,71.24
2023-02-13T18:17:09.207Z,73.52
2023-02-13T18:22:14.364Z,75.33
2023-02-13T18:27:17.944Z,75.59
2023-02-13T18:32:20.716Z,73.72
2023-02-13T18:37:24.994Z,74.86
2023-02-13T18:42:27.910Z,74.83
2023-02-13T18:47:30.733Z,73.67
2023-02-13T18:52:35.349Z,74.33
2023-02-13T18:57:43.234Z,72.20
2023-02-13T19:02:46.389Z,73.65
2023-02-13T19:07:53.023Z,71.75
2023-02-13T19:12:56.015Z,72.79
2023-02-13T19:17:58.983Z,76.03
2023-02-13T19:23:03.461Z,75.91
2023-02-13T19:28:06.644Z,75.03
2023-02-13T19:33:12.624Z,72.42
2023-02-13T19:38:16.861Z,72.76
2023-02-13T19:43:22.100Z,74.04
2023-02-13T19:48:27.501Z,73.89
2023-02-13T19:53:48.359Z,75.10
2023-02-13T19:58:54.411Z,75.17
2023-02-13T20:03:57.333Z,73.86
2023-02-13T20:09:04.757Z,74.53
2023-02-13T20:14:11.415Z,72.59
2023-02-13T20:19:15.205Z,75.12
2023-02-13T20:24:19.396Z,75.82
2023-02-13T20:29:27.059Z,76.88
2023-02-13T20:34:44.424Z,76.49
2023-02-13T20:40:12.077Z,75.66
2023-02-13T20:45:23.446Z,71.90
2023-02-13T20:50:30.369Z,75.00
2023-02-13T20:55:39.827Z,75.70
2023-02-13T21:00:47.569Z,74.43
2023-02-13T21:06:03.274Z,74.24
2023-02-13T21:11:47.290Z,74.34
2023-02-13T21:17:05.248Z,72.92
2023-02-13T21:22:21.242Z,73.42
2023-02-13T21:27:34.488Z,73.50
2023-02-13T21:32:51.417Z,74.73
2023-02-13T21:38:01.234Z,73.97
2023-02-13T21:43:12.116Z,73.33
2023-02-13T21:48:23.779Z,69.97
2023-02-13T21:53:35.076Z,72.84
2023-02-13T21:58:47.349Z,72.00
2023-02-13T22:04:00.377Z,70.44
2023-02-13T22:09:14.137Z,73.63
2023-02-13T22:14:25.205Z,73.15
2023-02-13T22:19:34.485Z,72.91
2023-02-13T22:24:49.516Z,72.06
2023-02-13T22:30:00.385Z,70.52
2023-02-13T22:35:13.919Z,71.70
2023-02-13T22:40:30.955Z,73.31
2023-02-13T22:45:44.607Z,70.21
2023-02-13T22:56:28.977Z,71.83
2023-02-13T23:01:38.279Z,70.53
2023-02-13T23:06:50.079Z,69.84
2023-02-13T23:12:14.707Z,71.66
2023-02-13T23:17:40.339Z,72.25
2023-02-13T23:22:59.338Z,71.36
2023-02-13T23:28:11.328Z,72.10
2023-02-13T23:33:25.660Z,71.57
2023-02-13T23:38:33.695Z,68.64
2023-02-13T23:43:42.753Z,68.32
2023-02-13T23:48:59.988Z,70.86
2023-02-13T23:54:20.500Z,70.90
2023-02-13T23:59:30.605Z,68.67
